sensor_id;sensor_type;location;lat;lon;timestamp;P1;durP1;ratioP1;P2;durP2;ratioP2
50988;SDS011;37008;52.210;21.112;2023-02-11T00:00:54;53.00;;;26.90;;
50988;SDS011;37008;52.210;21.112;2023-02-11T00:03:20;53.78;;;27.50;;
50988;SDS011;37008;52.210;21.112;2023-02-11T00:05:55;56.03;;;26.73;;
50988;SDS011;37008;52.210;21.112;2023-02-11T00:08:21;55.08;;;26.55;;
50988;SDS011;37008;52.210;21.112;2023-02-11T00:10:50;57.35;;;27.55;;
50988;SDS011;37008;52.210;21.112;2023-02-11T00:13:16;52.58;;;25.30;;
50988;SDS011;37008;52.210;21.112;2023-02-11T00:15:42;54.53;;;27.88;;
50988;SDS011;37008;52.210;21.112;2023-02-11T00:18:07;47.72;;;24.13;;
50988;SDS011;37008;52.210;21.112;2023-02-11T00:20:33;48.88;;;24.13;;
50988;SDS011;37008;52.210;21.112;2023-02-11T00:22:58;58.50;;;26.70;;
50988;SDS011;37008;52.210;21.112;2023-02-11T00:25:24;48.25;;;25.50;;
50988;SDS011;37008;52.210;21.112;2023-02-11T00:27:50;53.75;;;25.52;;
50988;SDS011;37008;52.210;21.112;2023-02-11T00:30:15;48.28;;;24.58;;
50988;SDS011;37008;52.210;21.112;2023-02-11T00:32:41;45.70;;;23.13;;
50988;SDS011;37008;52.210;21.112;2023-02-11T00:35:07;45.17;;;22.90;;
50988;SDS011;37008;52.210;21.112;2023-02-11T00:37:32;41.28;;;20.48;;
50988;SDS011;37008;52.210;21.112;2023-02-11T00:40:00;43.90;;;20.88;;
50988;SDS011;37008;52.210;21.112;2023-02-11T00:42:27;39.28;;;21.00;;
50988;SDS011;37008;52.210;21.112;2023-02-11T00:44:52;46.78;;;22.38;;
50988;SDS011;37008;52.210;21.112;2023-02-11T00:47:18;43.47;;;21.73;;
50988;SDS011;37008;52.210;21.112;2023-02-11T00:49:43;46.60;;;21.77;;
50988;SDS011;37008;52.210;21.112;2023-02-11T00:52:09;42.95;;;22.42;;
50988;SDS011;37008;52.210;21.112;2023-02-11T00:54:34;39.60;;;21.60;;
50988;SDS011;37008;52.210;21.112;2023-02-11T00:57:00;37.03;;;19.67;;
50988;SDS011;37008;52.210;21.112;2023-02-11T00:59:26;41.17;;;19.48;;
50988;SDS011;37008;52.210;21.112;2023-02-11T01:01:51;39.30;;;20.55;;
50988;SDS011;37008;52.210;21.112;2023-02-11T01:04:17;37.45;;;18.92;;
50988;SDS011;37008;52.210;21.112;2023-02-11T01:06:42;38.90;;;21.52;;
50988;SDS011;37008;52.210;21.112;2023-02-11T01:09:08;40.63;;;20.70;;
50988;SDS011;37008;52.210;21.112;2023-02-11T01:11:33;43.50;;;20.80;;
50988;SDS011;37008;52.210;21.112;2023-02-11T01:13:59;45.70;;;20.75;;
50988;SDS011;37008;52.210;21.112;2023-02-11T01:16:25;43.00;;;21.52;;
50988;SDS011;37008;52.210;21.112;2023-02-11T01:18:50;39.65;;;20.52;;
50988;SDS011;37008;52.210;21.112;2023-02-11T01:21:16;43.28;;;21.58;;
50988;SDS011;37008;52.210;21.112;2023-02-11T01:23:42;45.42;;;22.67;;
50988;SDS011;37008;52.210;21.112;2023-02-11T01:26:07;42.75;;;20.88;;
50988;SDS011;37008;52.210;21.112;2023-02-11T01:28:33;50.60;;;22.58;;
50988;SDS011;37008;52.210;21.112;2023-02-11T01:30:59;43.95;;;20.77;;
50988;SDS011;37008;52.210;21.112;2023-02-11T01:33:25;46.35;;;22.42;;
50988;SDS011;37008;52.210;21.112;2023-02-11T01:35:51;42.17;;;21.48;;
50988;SDS011;37008;52.210;21.112;2023-02-11T01:38:19;43.80;;;20.60;;
50988;SDS011;37008;52.210;21.112;2023-02-11T01:40:50;44.83;;;21.58;;
50988;SDS011;37008;52.210;21.112;2023-02-11T01:43:18;44.00;;;21.30;;
50988;SDS011;37008;52.210;21.112;2023-02-11T01:48:17;45.25;;;21.38;;
50988;SDS011;37008;52.210;21.112;2023-02-11T01:50:48;39.65;;;19.77;;
50988;SDS011;37008;52.210;21.112;2023-02-11T01:53:17;42.97;;;19.75;;
50988;SDS011;37008;52.210;21.112;2023-02-11T01:56:02;39.38;;;19.55;;
50988;SDS011;37008;52.210;21.112;2023-02-11T01:58:47;40.92;;;18.27;;
50988;SDS011;37008;52.210;21.112;2023-02-11T02:01:17;36.20;;;18.02;;
50988;SDS011;37008;52.210;21.112;2023-02-11T02:03:47;32.20;;;17.77;;
50988;SDS011;37008;52.210;21.112;2023-02-11T02:06:31;33.42;;;17.75;;
50988;SDS011;37008;52.210;21.112;2023-02-11T02:09:22;30.88;;;17.02;;
50988;SDS011;37008;52.210;21.112;2023-02-11T02:11:51;32.97;;;16.92;;
50988;SDS011;37008;52.210;21.112;2023-02-11T02:14:17;36.40;;;18.23;;
50988;SDS011;37008;52.210;21.112;2023-02-11T02:16:43;38.15;;;17.98;;
50988;SDS011;37008;52.210;21.112;2023-02-11T02:27:39;34.58;;;17.13;;
50988;SDS011;37008;52.210;21.112;2023-02-11T02:33:29;34.55;;;17.02;;
50988;SDS011;37008;52.210;21.112;2023-02-11T02:36:27;31.23;;;15.35;;
50988;SDS011;37008;52.210;21.112;2023-02-11T02:39:31;35.75;;;16.83;;
50988;SDS011;37008;52.210;21.112;2023-02-11T02:41:59;31.90;;;15.50;;
50988;SDS011;37008;52.210;21.112;2023-02-11T02:44:26;38.83;;;16.58;;
50988;SDS011;37008;52.210;21.112;2023-02-11T02:46:53;38.92;;;16.73;;
50988;SDS011;37008;52.210;21.112;2023-02-11T02:49:18;35.42;;;16.55;;
50988;SDS011;37008;52.210;21.112;2023-02-11T02:57:37;33.58;;;14.80;;
50988;SDS011;37008;52.210;21.112;2023-02-11T03:00:26;31.70;;;14.38;;
50988;SDS011;37008;52.210;21.112;2023-02-11T03:05:57;35.30;;;15.65;;
50988;SDS011;37008;52.210;21.112;2023-02-11T03:08:37;30.63;;;15.43;;
50988;SDS011;37008;52.210;21.112;2023-02-11T03:11:03;31.25;;;14.50;;
50988;SDS011;37008;52.210;21.112;2023-02-11T03:13:31;34.90;;;15.00;;
50988;SDS011;37008;52.210;21.112;2023-02-11T03:16:07;34.03;;;16.15;;
50988;SDS011;37008;52.210;21.112;2023-02-11T03:18:47;30.47;;;14.33;;
50988;SDS011;37008;52.210;21.112;2023-02-11T03:21:16;37.13;;;16.02;;
50988;SDS011;37008;52.210;21.112;2023-02-11T03:23:47;29.65;;;14.57;;
50988;SDS011;37008;52.210;21.112;2023-02-11T03:26:19;28.23;;;14.98;;
50988;SDS011;37008;52.210;21.112;2023-02-11T03:34:05;31.42;;;15.35;;
50988;SDS011;37008;52.210;21.112;2023-02-11T03:36:43;29.95;;;14.32;;
50988;SDS011;37008;52.210;21.112;2023-02-11T03:39:21;27.80;;;14.57;;
50988;SDS011;37008;52.210;21.112;2023-02-11T03:41:53;28.60;;;14.75;;
50988;SDS011;37008;52.210;21.112;2023-02-11T03:44:20;25.80;;;14.60;;
50988;SDS011;37008;52.210;21.112;2023-02-11T03:46:49;25.08;;;14.82;;
50988;SDS011;37008;52.210;21.112;2023-02-11T03:49:16;28.60;;;15.20;;
50988;SDS011;37008;52.210;21.112;2023-02-11T03:51:45;32.50;;;14.60;;
50988;SDS011;37008;52.210;21.112;2023-02-11T03:54:15;28.77;;;13.60;;
50988;SDS011;37008;52.210;21.112;2023-02-11T03:56:50;31.60;;;15.98;;
50988;SDS011;37008;52.210;21.112;2023-02-11T03:59:21;28.38;;;15.35;;
50988;SDS011;37008;52.210;21.112;2023-02-11T04:01:47;29.95;;;14.73;;
50988;SDS011;37008;52.210;21.112;2023-02-11T04:04:13;26.05;;;14.18;;
50988;SDS011;37008;52.210;21.112;2023-02-11T04:06:38;28.80;;;14.35;;
50988;SDS011;37008;52.210;21.112;2023-02-11T04:09:04;35.60;;;15.68;;
50988;SDS011;37008;52.210;21.112;2023-02-11T04:11:30;28.35;;;16.00;;
50988;SDS011;37008;52.210;21.112;2023-02-11T04:13:56;33.78;;;15.85;;
50988;SDS011;37008;52.210;21.112;2023-02-11T04:16:21;31.02;;;15.25;;
50988;SDS011;37008;52.210;21.112;2023-02-11T04:18:47;29.67;;;15.77;;
50988;SDS011;37008;52.210;21.112;2023-02-11T04:21:13;32.65;;;16.58;;
50988;SDS011;37008;52.210;21.112;2023-02-11T04:23:38;34.67;;;16.25;;
50988;SDS011;37008;52.210;21.112;2023-02-11T04:26:04;33.40;;;17.75;;
50988;SDS011;37008;52.210;21.112;2023-02-11T04:28:30;29.90;;;16.45;;
50988;SDS011;37008;52.210;21.112;2023-02-11T04:30:56;31.10;;;17.00;;
50988;SDS011;37008;52.210;21.112;2023-02-11T04:33:21;36.60;;;18.58;;
50988;SDS011;37008;52.210;21.112;2023-02-11T04:35:47;35.08;;;17.52;;
50988;SDS011;37008;52.210;21.112;2023-02-11T04:38:13;34.30;;;17.50;;
50988;SDS011;37008;52.210;21.112;2023-02-11T04:40:39;31.35;;;18.15;;
50988;SDS011;37008;52.210;21.112;2023-02-11T04:43:04;36.60;;;18.90;;
50988;SDS011;37008;52.210;21.112;2023-02-11T04:45:30;34.45;;;17.67;;
50988;SDS011;37008;52.210;21.112;2023-02-11T04:47:56;38.10;;;20.02;;
50988;SDS011;37008;52.210;21.112;2023-02-11T04:50:22;33.60;;;18.42;;
50988;SDS011;37008;52.210;21.112;2023-02-11T04:52:47;35.50;;;18.45;;
50988;SDS011;37008;52.210;21.112;2023-02-11T04:55:13;32.70;;;17.00;;
50988;SDS011;37008;52.210;21.112;2023-02-11T04:57:39;36.15;;;19.10;;
50988;SDS011;37008;52.210;21.112;2023-02-11T05:00:05;36.85;;;19.33;;
50988;SDS011;37008;52.210;21.112;2023-02-11T05:02:31;33.45;;;18.42;;
50988;SDS011;37008;52.210;21.112;2023-02-11T05:04:57;36.70;;;18.92;;
50988;SDS011;37008;52.210;21.112;2023-02-11T05:07:22;39.97;;;21.27;;
50988;SDS011;37008;52.210;21.112;2023-02-11T05:09:48;37.35;;;20.48;;
50988;SDS011;37008;52.210;21.112;2023-02-11T05:12:14;35.30;;;20.17;;
50988;SDS011;37008;52.210;21.112;2023-02-11T05:14:39;34.90;;;20.42;;
50988;SDS011;37008;52.210;21.112;2023-02-11T05:17:05;41.05;;;21.00;;
50988;SDS011;37008;52.210;21.112;2023-02-11T05:19:30;42.67;;;23.13;;
50988;SDS011;37008;52.210;21.112;2023-02-11T05:21:56;40.25;;;20.80;;
50988;SDS011;37008;52.210;21.112;2023-02-11T05:24:22;36.03;;;20.10;;
50988;SDS011;37008;52.210;21.112;2023-02-11T05:26:48;34.95;;;19.45;;
50988;SDS011;37008;52.210;21.112;2023-02-11T05:29:13;36.97;;;20.85;;
50988;SDS011;37008;52.210;21.112;2023-02-11T05:31:39;34.25;;;20.48;;
50988;SDS011;37008;52.210;21.112;2023-02-11T05:34:04;38.92;;;22.02;;
50988;SDS011;37008;52.210;21.112;2023-02-11T05:36:30;36.10;;;20.42;;
50988;SDS011;37008;52.210;21.112;2023-02-11T05:38:57;38.25;;;22.30;;
50988;SDS011;37008;52.210;21.112;2023-02-11T05:41:22;35.50;;;20.08;;
50988;SDS011;37008;52.210;21.112;2023-02-11T05:43:48;34.25;;;20.77;;
50988;SDS011;37008;52.210;21.112;2023-02-11T05:46:15;35.10;;;20.70;;
50988;SDS011;37008;52.210;21.112;2023-02-11T05:48:41;38.13;;;21.10;;
50988;SDS011;37008;52.210;21.112;2023-02-11T05:51:07;34.83;;;21.23;;
50988;SDS011;37008;52.210;21.112;2023-02-11T05:53:33;32.33;;;20.88;;
50988;SDS011;37008;52.210;21.112;2023-02-11T05:55:59;36.63;;;21.42;;
50988;SDS011;37008;52.210;21.112;2023-02-11T05:58:25;38.20;;;19.92;;
50988;SDS011;37008;52.210;21.112;2023-02-11T06:00:51;36.22;;;20.83;;
50988;SDS011;37008;52.210;21.112;2023-02-11T06:03:16;35.55;;;22.20;;
50988;SDS011;37008;52.210;21.112;2023-02-11T06:05:42;39.38;;;20.27;;
50988;SDS011;37008;52.210;21.112;2023-02-11T06:08:08;27.88;;;15.48;;
50988;SDS011;37008;52.210;21.112;2023-02-11T06:10:35;41.28;;;20.45;;
50988;SDS011;37008;52.210;21.112;2023-02-11T06:13:01;35.13;;;21.73;;
50988;SDS011;37008;52.210;21.112;2023-02-11T06:15:26;39.53;;;21.50;;
50988;SDS011;37008;52.210;21.112;2023-02-11T06:17:52;36.35;;;21.25;;
50988;SDS011;37008;52.210;21.112;2023-02-11T06:20:18;35.22;;;20.85;;
50988;SDS011;37008;52.210;21.112;2023-02-11T06:22:44;36.78;;;20.75;;
50988;SDS011;37008;52.210;21.112;2023-02-11T06:25:10;33.28;;;20.90;;
50988;SDS011;37008;52.210;21.112;2023-02-11T06:27:36;37.35;;;22.90;;
50988;SDS011;37008;52.210;21.112;2023-02-11T06:30:03;38.10;;;22.75;;
50988;SDS011;37008;52.210;21.112;2023-02-11T06:32:29;33.20;;;21.08;;
50988;SDS011;37008;52.210;21.112;2023-02-11T06:34:54;42.17;;;23.95;;
50988;SDS011;37008;52.210;21.112;2023-02-11T06:37:20;43.75;;;23.38;;
50988;SDS011;37008;52.210;21.112;2023-02-11T06:39:46;41.83;;;22.55;;
50988;SDS011;37008;52.210;21.112;2023-02-11T06:42:11;51.83;;;25.95;;
50988;SDS011;37008;52.210;21.112;2023-02-11T06:44:37;45.75;;;24.90;;
50988;SDS011;37008;52.210;21.112;2023-02-11T06:47:03;43.72;;;24.05;;
50988;SDS011;37008;52.210;21.112;2023-02-11T06:49:28;39.13;;;23.00;;
50988;SDS011;37008;52.210;21.112;2023-02-11T06:51:54;49.20;;;25.65;;
50988;SDS011;37008;52.210;21.112;2023-02-11T06:54:20;44.28;;;25.52;;
50988;SDS011;37008;52.210;21.112;2023-02-11T06:56:45;40.55;;;24.08;;
50988;SDS011;37008;52.210;21.112;2023-02-11T06:59:14;47.20;;;25.95;;
50988;SDS011;37008;52.210;21.112;2023-02-11T07:01:41;45.35;;;24.30;;
50988;SDS011;37008;52.210;21.112;2023-02-11T07:04:07;45.60;;;24.55;;
50988;SDS011;37008;52.210;21.112;2023-02-11T07:06:33;46.13;;;25.73;;
50988;SDS011;37008;52.210;21.112;2023-02-11T07:08:58;47.72;;;26.05;;
50988;SDS011;37008;52.210;21.112;2023-02-11T07:11:25;42.72;;;25.70;;
50988;SDS011;37008;52.210;21.112;2023-02-11T07:13:53;43.45;;;25.88;;
50988;SDS011;37008;52.210;21.112;2023-02-11T07:16:23;46.95;;;25.40;;
50988;SDS011;37008;52.210;21.112;2023-02-11T07:18:48;47.92;;;26.63;;
50988;SDS011;37008;52.210;21.112;2023-02-11T07:21:15;44.17;;;24.85;;
50988;SDS011;37008;52.210;21.112;2023-02-11T07:23:43;48.70;;;26.60;;
50988;SDS011;37008;52.210;21.112;2023-02-11T07:26:10;45.17;;;26.08;;
50988;SDS011;37008;52.210;21.112;2023-02-11T07:28:38;51.45;;;26.40;;
50988;SDS011;37008;52.210;21.112;2023-02-11T07:31:05;47.45;;;27.98;;
50988;SDS011;37008;52.210;21.112;2023-02-11T07:33:31;40.50;;;25.70;;
50988;SDS011;37008;52.210;21.112;2023-02-11T07:35:59;47.97;;;28.23;;
50988;SDS011;37008;52.210;21.112;2023-02-11T07:38:24;50.63;;;28.98;;
50988;SDS011;37008;52.210;21.112;2023-02-11T07:40:51;48.53;;;29.15;;
50988;SDS011;37008;52.210;21.112;2023-02-11T07:43:16;49.88;;;29.35;;
50988;SDS011;37008;52.210;21.112;2023-02-11T07:45:42;52.63;;;29.27;;
50988;SDS011;37008;52.210;21.112;2023-02-11T07:48:08;51.88;;;29.88;;
50988;SDS011;37008;52.210;21.112;2023-02-11T07:50:33;44.10;;;29.42;;
50988;SDS011;37008;52.210;21.112;2023-02-11T07:52:59;53.05;;;28.30;;
50988;SDS011;37008;52.210;21.112;2023-02-11T07:55:24;51.83;;;31.10;;
50988;SDS011;37008;52.210;21.112;2023-02-11T07:57:50;53.30;;;32.00;;
50988;SDS011;37008;52.210;21.112;2023-02-11T08:00:16;52.72;;;30.58;;
50988;SDS011;37008;52.210;21.112;2023-02-11T08:02:41;57.03;;;33.03;;
50988;SDS011;37008;52.210;21.112;2023-02-11T08:05:07;54.83;;;32.00;;
50988;SDS011;37008;52.210;21.112;2023-02-11T08:07:33;52.95;;;28.80;;
50988;SDS011;37008;52.210;21.112;2023-02-11T08:09:58;56.55;;;32.58;;
50988;SDS011;37008;52.210;21.112;2023-02-11T08:12:24;52.17;;;32.38;;
50988;SDS011;37008;52.210;21.112;2023-02-11T08:14:49;53.88;;;32.67;;
50988;SDS011;37008;52.210;21.112;2023-02-11T08:17:15;53.42;;;32.60;;
50988;SDS011;37008;52.210;21.112;2023-02-11T08:19:41;52.92;;;29.95;;
50988;SDS011;37008;52.210;21.112;2023-02-11T08:22:07;57.95;;;32.40;;
50988;SDS011;37008;52.210;21.112;2023-02-11T08:24:32;58.55;;;34.63;;
50988;SDS011;37008;52.210;21.112;2023-02-11T08:26:58;60.17;;;35.25;;
50988;SDS011;37008;52.210;21.112;2023-02-11T08:29:23;60.78;;;35.97;;
50988;SDS011;37008;52.210;21.112;2023-02-11T08:31:49;67.45;;;36.67;;
50988;SDS011;37008;52.210;21.112;2023-02-11T08:34:14;68.30;;;39.08;;
50988;SDS011;37008;52.210;21.112;2023-02-11T08:36:42;69.32;;;38.78;;
50988;SDS011;37008;52.210;21.112;2023-02-11T08:39:11;68.38;;;39.63;;
50988;SDS011;37008;52.210;21.112;2023-02-11T08:41:49;73.30;;;39.97;;
50988;SDS011;37008;52.210;21.112;2023-02-11T08:44:18;73.63;;;40.10;;
50988;SDS011;37008;52.210;21.112;2023-02-11T08:46:44;78.13;;;40.75;;
50988;SDS011;37008;52.210;21.112;2023-02-11T08:49:10;67.40;;;36.88;;
50988;SDS011;37008;52.210;21.112;2023-02-11T08:51:36;77.65;;;42.30;;
50988;SDS011;37008;52.210;21.112;2023-02-11T08:54:01;75.05;;;40.22;;
50988;SDS011;37008;52.210;21.112;2023-02-11T08:56:28;71.38;;;40.20;;
50988;SDS011;37008;52.210;21.112;2023-02-11T08:58:55;70.43;;;40.60;;
50988;SDS011;37008;52.210;21.112;2023-02-11T09:01:22;73.15;;;39.53;;
50988;SDS011;37008;52.210;21.112;2023-02-11T09:03:50;65.82;;;40.22;;
50988;SDS011;37008;52.210;21.112;2023-02-11T09:06:16;66.95;;;40.33;;
50988;SDS011;37008;52.210;21.112;2023-02-11T09:08:44;63.75;;;38.83;;
50988;SDS011;37008;52.210;21.112;2023-02-11T09:11:13;64.53;;;38.47;;
50988;SDS011;37008;52.210;21.112;2023-02-11T09:13:40;62.28;;;37.15;;
50988;SDS011;37008;52.210;21.112;2023-02-11T09:16:07;58.25;;;37.67;;
50988;SDS011;37008;52.210;21.112;2023-02-11T09:18:38;62.15;;;36.10;;
50988;SDS011;37008;52.210;21.112;2023-02-11T09:21:05;58.08;;;36.35;;
50988;SDS011;37008;52.210;21.112;2023-02-11T09:23:32;55.22;;;34.33;;
50988;SDS011;37008;52.210;21.112;2023-02-11T09:26:08;55.95;;;33.50;;
50988;SDS011;37008;52.210;21.112;2023-02-11T09:28:37;57.40;;;35.17;;
50988;SDS011;37008;52.210;21.112;2023-02-11T09:31:06;56.15;;;35.42;;
50988;SDS011;37008;52.210;21.112;2023-02-11T09:33:33;56.67;;;33.97;;
50988;SDS011;37008;52.210;21.112;2023-02-11T09:36:08;56.28;;;34.17;;
50988;SDS011;37008;52.210;21.112;2023-02-11T09:38:34;56.40;;;36.63;;
50988;SDS011;37008;52.210;21.112;2023-02-11T09:40:59;58.92;;;36.10;;
50988;SDS011;37008;52.210;21.112;2023-02-11T09:43:30;54.47;;;35.50;;
50988;SDS011;37008;52.210;21.112;2023-02-11T09:46:03;52.88;;;34.88;;
50988;SDS011;37008;52.210;21.112;2023-02-11T09:48:29;53.05;;;33.42;;
50988;SDS011;37008;52.210;21.112;2023-02-11T09:51:02;57.17;;;34.53;;
50988;SDS011;37008;52.210;21.112;2023-02-11T09:53:36;55.72;;;34.33;;
50988;SDS011;37008;52.210;21.112;2023-02-11T09:56:12;103.43;;;52.50;;
50988;SDS011;37008;52.210;21.112;2023-02-11T09:58:40;95.45;;;52.85;;
50988;SDS011;37008;52.210;21.112;2023-02-11T10:06:54;74.47;;;41.35;;
50988;SDS011;37008;52.210;21.112;2023-02-11T10:20:31;88.18;;;47.15;;
50988;SDS011;37008;52.210;21.112;2023-02-11T10:23:11;82.15;;;44.30;;
50988;SDS011;37008;52.210;21.112;2023-02-11T10:25:43;84.05;;;45.33;;
50988;SDS011;37008;52.210;21.112;2023-02-11T10:30:55;86.10;;;47.22;;
50988;SDS011;37008;52.210;21.112;2023-02-11T10:36:11;82.75;;;44.35;;
50988;SDS011;37008;52.210;21.112;2023-02-11T10:38:38;86.05;;;46.65;;
50988;SDS011;37008;52.210;21.112;2023-02-11T10:41:04;74.00;;;39.65;;
50988;SDS011;37008;52.210;21.112;2023-02-11T10:43:30;78.72;;;43.75;;
50988;SDS011;37008;52.210;21.112;2023-02-11T10:45:57;77.30;;;41.58;;
50988;SDS011;37008;52.210;21.112;2023-02-11T10:51:14;84.70;;;42.83;;
50988;SDS011;37008;52.210;21.112;2023-02-11T10:54:08;69.15;;;39.70;;
50988;SDS011;37008;52.210;21.112;2023-02-11T10:56:46;76.22;;;41.72;;
50988;SDS011;37008;52.210;21.112;2023-02-11T10:59:26;80.93;;;43.40;;
50988;SDS011;37008;52.210;21.112;2023-02-11T11:02:04;81.60;;;43.03;;
50988;SDS011;37008;52.210;21.112;2023-02-11T11:04:44;80.30;;;43.42;;
50988;SDS011;37008;52.210;21.112;2023-02-11T11:12:52;87.05;;;46.65;;
50988;SDS011;37008;52.210;21.112;2023-02-11T11:17:44;86.90;;;45.22;;
50988;SDS011;37008;52.210;21.112;2023-02-11T11:25:43;83.63;;;45.83;;
50988;SDS011;37008;52.210;21.112;2023-02-11T11:28:22;84.70;;;46.00;;
50988;SDS011;37008;52.210;21.112;2023-02-11T11:30:51;88.90;;;45.85;;
50988;SDS011;37008;52.210;21.112;2023-02-11T11:33:20;94.82;;;50.83;;
50988;SDS011;37008;52.210;21.112;2023-02-11T11:38:37;98.72;;;49.25;;
50988;SDS011;37008;52.210;21.112;2023-02-11T11:41:17;105.13;;;50.05;;
50988;SDS011;37008;52.210;21.112;2023-02-11T11:46:32;112.85;;;53.85;;
50988;SDS011;37008;52.210;21.112;2023-02-11T11:49:06;99.30;;;49.22;;
50988;SDS011;37008;52.210;21.112;2023-02-11T11:51:42;109.25;;;52.53;;
50988;SDS011;37008;52.210;21.112;2023-02-11T11:54:11;103.03;;;51.20;;
50988;SDS011;37008;52.210;21.112;2023-02-11T11:56:41;113.95;;;51.25;;
50988;SDS011;37008;52.210;21.112;2023-02-11T11:59:24;115.38;;;53.00;;
50988;SDS011;37008;52.210;21.112;2023-02-11T12:02:18;118.15;;;53.08;;
50988;SDS011;37008;52.210;21.112;2023-02-11T12:05:16;109.88;;;51.60;;
50988;SDS011;37008;52.210;21.112;2023-02-11T12:08:02;118.28;;;54.60;;
50988;SDS011;37008;52.210;21.112;2023-02-11T12:18:44;116.05;;;53.90;;
50988;SDS011;37008;52.210;21.112;2023-02-11T12:27:03;101.53;;;53.80;;
50988;SDS011;37008;52.210;21.112;2023-02-11T12:37:42;97.82;;;50.05;;
50988;SDS011;37008;52.210;21.112;2023-02-11T12:40:18;98.30;;;52.85;;
50988;SDS011;37008;52.210;21.112;2023-02-11T12:46:05;107.28;;;53.28;;
50988;SDS011;37008;52.210;21.112;2023-02-11T12:51:35;93.35;;;49.17;;
50988;SDS011;37008;52.210;21.112;2023-02-11T12:54:26;97.80;;;50.45;;
50988;SDS011;37008;52.210;21.112;2023-02-11T12:57:05;99.32;;;51.53;;
50988;SDS011;37008;52.210;21.112;2023-02-11T12:59:46;80.47;;;43.22;;
50988;SDS011;37008;52.210;21.112;2023-02-11T13:07:55;88.10;;;47.42;;
50988;SDS011;37008;52.210;21.112;2023-02-11T13:10:33;94.13;;;49.47;;
50988;SDS011;37008;52.210;21.112;2023-02-11T13:13:10;84.07;;;47.55;;
50988;SDS011;37008;52.210;21.112;2023-02-11T13:15:42;84.45;;;47.28;;
50988;SDS011;37008;52.210;21.112;2023-02-11T13:27:19;86.82;;;48.90;;
50988;SDS011;37008;52.210;21.112;2023-02-11T13:30:07;90.53;;;47.17;;
50988;SDS011;37008;52.210;21.112;2023-02-11T13:37:51;85.82;;;48.95;;
50988;SDS011;37008;52.210;21.112;2023-02-11T13:42:49;91.90;;;51.78;;
50988;SDS011;37008;52.210;21.112;2023-02-11T13:45:26;94.82;;;51.75;;
50988;SDS011;37008;52.210;21.112;2023-02-11T13:47:58;93.53;;;51.28;;
50988;SDS011;37008;52.210;21.112;2023-02-11T13:50:38;104.38;;;54.17;;
50988;SDS011;37008;52.210;21.112;2023-02-11T13:53:11;91.88;;;46.53;;
50988;SDS011;37008;52.210;21.112;2023-02-11T13:55:36;99.95;;;52.13;;
50988;SDS011;37008;52.210;21.112;2023-02-11T14:03:23;102.30;;;51.58;;
50988;SDS011;37008;52.210;21.112;2023-02-11T14:12:15;98.65;;;52.60;;
50988;SDS011;37008;52.210;21.112;2023-02-11T14:17:45;101.75;;;54.25;;
50988;SDS011;37008;52.210;21.112;2023-02-11T14:20:44;95.47;;;53.38;;
50988;SDS011;37008;52.210;21.112;2023-02-11T14:23:05;95.40;;;52.10;;
50988;SDS011;37008;52.210;21.112;2023-02-11T14:25:41;105.93;;;52.83;;
50988;SDS011;37008;52.210;21.112;2023-02-11T14:28:11;98.68;;;52.40;;
50988;SDS011;37008;52.210;21.112;2023-02-11T14:30:54;99.93;;;54.90;;
50988;SDS011;37008;52.210;21.112;2023-02-11T14:41:39;85.10;;;46.85;;
50988;SDS011;37008;52.210;21.112;2023-02-11T14:44:14;86.72;;;49.75;;
50988;SDS011;37008;52.210;21.112;2023-02-11T14:46:46;85.57;;;46.95;;
50988;SDS011;37008;52.210;21.112;2023-02-11T14:49:24;86.28;;;48.13;;
50988;SDS011;37008;52.210;21.112;2023-02-11T14:51:55;75.80;;;43.33;;
50988;SDS011;37008;52.210;21.112;2023-02-11T14:54:27;86.82;;;49.28;;
50988;SDS011;37008;52.210;21.112;2023-02-11T14:59:59;85.88;;;47.20;;
50988;SDS011;37008;52.210;21.112;2023-02-11T15:02:28;83.13;;;46.28;;
50988;SDS011;37008;52.210;21.112;2023-02-11T15:07:43;79.63;;;44.28;;
50988;SDS011;37008;52.210;21.112;2023-02-11T15:10:46;86.07;;;46.13;;
50988;SDS011;37008;52.210;21.112;2023-02-11T15:13:08;88.20;;;47.83;;
50988;SDS011;37008;52.210;21.112;2023-02-11T15:15:42;103.13;;;48.58;;
50988;SDS011;37008;52.210;21.112;2023-02-11T15:18:12;95.38;;;50.92;;
50988;SDS011;37008;52.210;21.112;2023-02-11T15:20:46;86.93;;;48.78;;
50988;SDS011;37008;52.210;21.112;2023-02-11T15:23:17;91.80;;;48.97;;
50988;SDS011;37008;52.210;21.112;2023-02-11T15:25:46;95.28;;;50.28;;
50988;SDS011;37008;52.210;21.112;2023-02-11T15:28:21;92.75;;;49.63;;
50988;SDS011;37008;52.210;21.112;2023-02-11T15:30:59;93.00;;;48.72;;
50988;SDS011;37008;52.210;21.112;2023-02-11T15:33:29;93.00;;;47.80;;
50988;SDS011;37008;52.210;21.112;2023-02-11T15:35:56;96.32;;;51.45;;
50988;SDS011;37008;52.210;21.112;2023-02-11T15:38:26;98.13;;;51.95;;
50988;SDS011;37008;52.210;21.112;2023-02-11T15:40:55;85.07;;;43.45;;
50988;SDS011;37008;52.210;21.112;2023-02-11T15:43:22;97.00;;;49.10;;
50988;SDS011;37008;52.210;21.112;2023-02-11T15:45:58;94.32;;;48.25;;
50988;SDS011;37008;52.210;21.112;2023-02-11T15:48:36;89.90;;;46.88;;
50988;SDS011;37008;52.210;21.112;2023-02-11T15:51:28;83.72;;;50.15;;
50988;SDS011;37008;52.210;21.112;2023-02-11T15:54:01;87.15;;;47.38;;
50988;SDS011;37008;52.210;21.112;2023-02-11T15:56:30;79.03;;;47.67;;
50988;SDS011;37008;52.210;21.112;2023-02-11T16:01:54;85.45;;;47.00;;
50988;SDS011;37008;52.210;21.112;2023-02-11T16:04:22;63.47;;;33.67;;
50988;SDS011;37008;52.210;21.112;2023-02-11T16:06:50;79.60;;;42.78;;
50988;SDS011;37008;52.210;21.112;2023-02-11T16:09:25;85.20;;;48.15;;
50988;SDS011;37008;52.210;21.112;2023-02-11T16:11:57;78.95;;;44.05;;
50988;SDS011;37008;52.210;21.112;2023-02-11T16:14:29;75.78;;;42.42;;
50988;SDS011;37008;52.210;21.112;2023-02-11T16:16:58;78.82;;;44.10;;
50988;SDS011;37008;52.210;21.112;2023-02-11T16:19:46;76.50;;;41.22;;
50988;SDS011;37008;52.210;21.112;2023-02-11T16:22:16;83.05;;;44.15;;
50988;SDS011;37008;52.210;21.112;2023-02-11T16:24:45;81.15;;;43.20;;
50988;SDS011;37008;52.210;21.112;2023-02-11T16:30:22;78.47;;;45.93;;
50988;SDS011;37008;52.210;21.112;2023-02-11T16:32:59;78.57;;;42.83;;
50988;SDS011;37008;52.210;21.112;2023-02-11T16:35:25;76.25;;;46.17;;
50988;SDS011;37008;52.210;21.112;2023-02-11T16:37:50;73.70;;;42.47;;
50988;SDS011;37008;52.210;21.112;2023-02-11T16:40:16;77.47;;;41.40;;
50988;SDS011;37008;52.210;21.112;2023-02-11T16:42:42;69.38;;;39.40;;
50988;SDS011;37008;52.210;21.112;2023-02-11T16:45:07;71.75;;;40.75;;
50988;SDS011;37008;52.210;21.112;2023-02-11T16:47:33;71.85;;;39.58;;
50988;SDS011;37008;52.210;21.112;2023-02-11T16:50:00;69.43;;;40.53;;
50988;SDS011;37008;52.210;21.112;2023-02-11T16:52:27;66.55;;;38.83;;
50988;SDS011;37008;52.210;21.112;2023-02-11T16:54:55;72.00;;;39.92;;
50988;SDS011;37008;52.210;21.112;2023-02-11T16:57:22;60.40;;;38.22;;
50988;SDS011;37008;52.210;21.112;2023-02-11T16:59:49;63.85;;;38.03;;